Time;durP1;ratioP1;P1;durP2;ratioP2;P2;SDS_P1;SDS_P2;PMS_P1;PMS_P2;Temp;Humidity;BMP_temperature;BMP_pressure;BME280_temperature;BME280_humidity;BME280_pressure;Samples;Min_cycle;Max_cycle;Signal;HPM_P1;HPM_P2
2023/01/21 00:00:42;;;;;;;28.70;8.90;;;;;;;0.17;100.00;101468.77;103802;1288;60370;-81
2023/01/21 00:03:08;;;;;;;34.50;9.10;;;;;;;0.17;100.00;101464.19;103650;1288;60501;-82
2023/01/21 00:05:34;;;;;;;33.70;8.50;;;;;;;0.20;100.00;101456.66;103619;1283;60282;-81
2023/01/21 00:07:59;;;;;;;31.40;8.20;;;;;;;0.16;100.00;101455.45;103628;1286;60639;-82
2023/01/21 00:10:25;;;;;;;32.40;8.30;;;;;;;0.12;100.00;101453.14;103498;1291;74374;-81
2023/01/21 00:12:51;;;;;;;27.50;8.20;;;;;;;0.09;100.00;101449.03;103881;1285;60569;-81
2023/01/21 00:15:16;;;;;;;27.70;8.50;;;;;;;0.08;100.00;101447.88;103809;1289;60396;-83
2023/01/21 00:17:42;;;;;;;27.90;9.10;;;;;;;0.07;100.00;101442.56;103456;1291;60573;-81
2023/01/21 00:20:09;;;;;;;25.00;8.40;;;;;;;0.05;100.00;101441.50;103213;1292;60430;-81
2023/01/21 00:22:34;;;;;;;30.00;8.80;;;;;;;0.04;100.00;101439.52;103204;1294;60415;-81
2023/01/21 00:25:00;;;;;;;26.70;8.30;;;;;;;0.02;100.00;101436.94;103310;1288;60567;-81
2023/01/21 00:27:26;;;;;;;24.60;8.70;;;;;;;-0.01;100.00;101432.44;103408;1289;60403;-82
2023/01/21 00:29:51;;;;;;;37.60;9.10;;;;;;;-0.04;100.00;101427.14;103407;1286;60403;-81
2023/01/21 00:32:18;;;;;;;33.40;8.30;;;;;;;-0.04;100.00;101427.84;103358;1294;60637;-81
2023/01/21 00:38:06;;;;;;;29.70;7.40;;;;;;;-0.06;100.00;101422.74;103530;1287;73074;-82
2023/01/21 00:43:53;;;;;;;27.90;8.40;;;;;;;-0.04;100.00;101426.41;103430;1291;61168;-81
2023/01/21 00:46:19;;;;;;;27.60;8.10;;;;;;;-0.04;100.00;101424.42;103501;1291;60403;-81
2023/01/21 00:48:45;;;;;;;36.00;8.10;;;;;;;-0.04;100.00;101427.48;103610;1292;60481;-81
2023/01/21 00:51:11;;;;;;;27.70;8.10;;;;;;;-0.03;100.00;101423.96;103657;1289;60421;-81
2023/01/21 00:53:42;;;;;;;24.30;7.20;;;;;;;-0.05;100.00;101420.40;103582;1288;60395;-82
2023/01/21 00:56:10;;;;;;;28.10;8.10;;;;;;;-0.04;100.00;101425.71;103780;1288;60873;-81
2023/01/21 00:58:36;;;;;;;26.70;7.30;;;;;;;-0.06;100.00;101424.89;103662;1284;74498;-81
2023/01/21 01:01:07;;;;;;;24.10;6.60;;;;;;;-0.04;100.00;101421.32;103565;1300;60507;-81
2023/01/21 01:03:34;;;;;;;24.40;6.60;;;;;;;-0.03;100.00;101419.39;103217;1294;73866;-81
2023/01/21 01:06:12;;;;;;;26.80;6.50;;;;;;;-0.03;100.00;101422.10;103489;1286;62377;-81
2023/01/21 01:08:38;;;;;;;27.60;6.50;;;;;;;-0.02;100.00;101422.64;103505;1291;61548;-82
2023/01/21 01:11:04;;;;;;;23.30;6.50;;;;;;;-0.01;100.00;101422.41;103430;1291;60419;-81
2023/01/21 01:13:33;;;;;;;21.90;6.90;;;;;;;-0.03;100.00;101423.14;103410;1294;60448;-82
2023/01/21 01:15:59;;;;;;;26.90;6.40;;;;;;;-0.02;100.00;101420.59;103387;1288;74085;-81
2023/01/21 01:18:26;;;;;;;27.90;6.20;;;;;;;-0.03;100.00;101417.77;103276;1294;60455;-81
2023/01/21 01:20:52;;;;;;;29.70;7.40;;;;;;;-0.04;100.00;101419.16;103553;1287;60501;-81
2023/01/21 01:23:17;;;;;;;27.00;6.20;;;;;;;-0.06;100.00;101415.55;103296;1294;60744;-81
2023/01/21 01:25:43;;;;;;;25.80;6.50;;;;;;;-0.08;100.00;101414.02;103413;1291;60491;-81
2023/01/21 01:31:31;;;;;;;23.40;6.10;;;;;;;-0.14;100.00;101405.69;103435;1287;62748;-81
2023/01/21 01:33:56;;;;;;;32.20;8.20;;;;;;;-0.17;100.00;101401.74;103425;1289;60459;-81
2023/01/21 01:36:22;;;;;;;25.60;7.10;;;;;;;-0.20;100.00;101399.46;103291;1292;60422;-81
2023/01/21 01:38:49;;;;;;;27.70;7.40;;;;;;;-0.26;100.00;101394.61;103462;1283;60399;-81
2023/01/21 01:41:18;;;;;;;23.40;7.60;;;;;;;-0.31;100.00;101387.01;103676;1284;60355;-81
2023/01/21 01:43:47;;;;;;;28.80;7.40;;;;;;;-0.34;100.00;101388.45;103706;1284;60485;-81
2023/01/21 01:46:13;;;;;;;30.10;6.70;;;;;;;-0.41;100.00;101388.13;103645;1287;60523;-81
2023/01/21 01:48:41;;;;;;;27.90;6.60;;;;;;;-0.43;100.00;101389.75;103800;1288;60352;-81
2023/01/21 01:54:37;;;;;;;25.80;6.20;;;;;;;-0.50;100.00;101383.10;103011;1291;600370;-80
2023/01/21 02:00:22;;;;;;;26.00;7.30;;;;;;;-0.52;100.00;101382.05;103165;1290;600709;-79
2023/01/21 02:03:43;;;;;;;25.00;7.30;;;;;;;-0.54;100.00;101390.66;103264;1289;62332;-79
2023/01/21 02:05:35;;;;;;;19.70;7.00;;;;;;;-0.57;100.00;101387.42;103319;1289;60365;-79
2023/01/21 02:08:01;;;;;;;21.80;6.60;;;;;;;-0.57;100.00;101392.58;103721;1290;73442;-81
2023/01/21 02:10:28;;;;;;;19.00;7.00;;;;;;;-0.59;100.00;101391.55;103217;1286;60432;-79
2023/01/21 02:12:54;;;;;;;25.00;7.10;;;;;;;-0.61;100.00;101394.44;103446;1287;261187;-79
2023/01/21 02:15:21;;;;;;;22.60;7.10;;;;;;;-0.64;100.00;101404.95;103637;1286;60292;-80
2023/01/21 02:18:22;;;;;;;26.10;8.40;;;;;;;-0.66;100.00;101397.04;103720;1286;60351;-79
2023/01/21 02:20:54;;;;;;;22.80;7.60;;;;;;;-0.70;100.00;101398.65;103677;1286;73838;-80
2023/01/21 02:23:47;;;;;;;21.90;6.90;;;;;;;-0.73;100.00;101401.08;103602;1284;74764;-79
2023/01/21 02:26:44;;;;;;;22.90;6.90;;;;;;;-0.75;100.00;101397.80;103456;1286;72748;-80
2023/01/21 02:32:56;;;;;;;23.10;7.10;;;;;;;-0.76;100.00;101395.45;103056;1292;600659;-80
2023/01/21 02:35:59;;;;;;;23.70;7.40;;;;;;;-0.80;100.00;101401.91;103003;1295;62362;-79
2023/01/21 02:38:38;;;;;;;23.20;7.20;;;;;;;-0.81;100.00;101400.75;103222;1295;61775;-81
2023/01/21 02:41:20;;;;;;;21.70;6.90;;;;;;;-0.81;100.00;101401.11;103316;1295;72710;-79
2023/01/21 02:43:52;;;;;;;21.40;6.70;;;;;;;-0.85;100.00;101407.06;102961;1291;74764;-80
2023/01/21 02:46:49;;;;;;;25.40;7.00;;;;;;;-0.84;100.00;101403.42;103121;1290;246134;-78
2023/01/21 02:49:29;;;;;;;19.60;6.90;;;;;;;-0.89;100.00;101413.09;103554;1288;63164;-79
2023/01/21 02:51:55;;;;;;;31.10;7.40;;;;;;;-0.90;100.00;101415.45;103133;1293;61715;-78
2023/01/21 02:54:39;;;;;;;26.50;7.30;;;;;;;-0.90;100.00;101418.55;103254;1289;60342;-79
2023/01/21 02:57:13;;;;;;;27.70;8.30;;;;;;;-0.95;100.00;101422.98;103172;1292;74045;-79
2023/01/21 02:59:43;;;;;;;22.90;6.70;;;;;;;-0.95;100.00;101434.50;103361;1287;73873;-79
2023/01/21 03:02:27;;;;;;;22.00;7.60;;;;;;;-0.95;100.00;101447.89;103354;1289;63623;-79
2023/01/21 03:05:09;;;;;;;28.10;7.30;;;;;;;-0.98;100.00;101467.07;103176;1291;60298;-79
2023/01/21 03:07:39;;;;;;;23.10;6.60;;;;;;;-0.98;100.00;101486.64;103530;1289;74576;-79
2023/01/21 03:10:15;;;;;;;18.40;6.10;;;;;;;-0.96;100.00;101487.42;103627;1291;74679;-79
2023/01/21 03:13:05;;;;;;;21.90;6.90;;;;;;;-1.00;100.00;101470.20;103471;1291;74008;-78
2023/01/21 03:18:30;;;;;;;24.80;8.10;;;;;;;-1.07;100.00;101445.89;103349;1289;61691;-80
2023/01/21 03:21:02;;;;;;;32.80;7.50;;;;;;;-1.09;100.00;101427.28;103628;1291;74233;-79
2023/01/21 03:23:35;;;;;;;22.00;7.10;;;;;;;-1.08;100.00;101419.92;103722;1291;74716;-80
2023/01/21 03:26:02;;;;;;;18.30;6.70;;;;;;;-1.06;100.00;101419.52;102997;1289;73787;-80
2023/01/21 03:28:31;;;;;;;19.20;5.40;;;;;;;-1.03;100.00;101437.83;103541;1291;63291;-79
2023/01/21 03:31:07;;;;;;;18.50;6.00;;;;;;;-0.98;100.00;101455.77;103962;1286;61401;-80
2023/01/21 03:33:36;;;;;;;17.70;5.30;;;;;;;-0.90;100.00;101474.56;103431;1290;74130;-80
2023/01/21 03:36:12;;;;;;;20.40;5.10;;;;;;;-0.85;100.00;101485.02;103698;1292;74682;-80
2023/01/21 03:38:44;;;;;;;22.00;5.60;;;;;;;-0.78;100.00;101488.67;103715;1291;73827;-79
2023/01/21 03:41:33;;;;;;;17.20;6.00;;;;;;;-0.73;100.00;101493.27;103177;1289;62593;-79
2023/01/21 03:43:59;;;;;;;14.50;5.10;;;;;;;-0.69;100.00;101497.21;103396;1286;61499;-80
2023/01/21 03:46:28;;;;;;;22.60;5.90;;;;;;;-0.61;100.00;101487.07;103654;1286;60405;-79
2023/01/21 03:49:03;;;;;;;19.60;5.30;;;;;;;-0.58;100.00;101491.05;103383;1291;74622;-79
2023/01/21 03:51:35;;;;;;;22.80;6.00;;;;;;;-0.47;100.00;101496.41;103412;1291;73956;-80
2023/01/21 03:54:01;;;;;;;21.10;6.30;;;;;;;-0.36;100.00;101484.49;103441;1289;61576;-80
2023/01/21 03:56:27;;;;;;;20.00;6.00;;;;;;;-0.30;100.00;101469.29;103397;1286;60326;-81
2023/01/21 03:58:53;;;;;;;19.90;6.60;;;;;;;-0.26;100.00;101477.27;103247;1299;60297;-80
2023/01/21 04:01:19;;;;;;;21.40;6.10;;;;;;;-0.25;100.00;101458.90;103432;1291;60549;-80
2023/01/21 04:03:44;;;;;;;20.70;6.00;;;;;;;-0.25;100.00;101443.56;103247;1298;60418;-80
2023/01/21 04:06:18;;;;;;;21.50;5.40;;;;;;;-0.28;100.00;101461.15;103294;1291;60425;-80
2023/01/21 04:08:44;;;;;;;19.50;5.70;;;;;;;-0.30;100.00;101461.02;103083;1286;74202;-80
2023/01/21 04:11:10;;;;;;;19.30;5.80;;;;;;;-0.32;100.00;101461.30;103252;1292;60869;-80
2023/01/21 04:13:35;;;;;;;25.10;5.90;;;;;;;-0.33;100.00;101495.81;103235;1291;60464;-79
2023/01/21 04:16:01;;;;;;;18.60;5.90;;;;;;;-0.34;100.00;101520.52;103075;1289;60494;-80
2023/01/21 04:18:26;;;;;;;17.10;5.70;;;;;;;-0.37;100.00;101500.81;102993;1302;60424;-81
2023/01/21 04:20:52;;;;;;;18.10;5.30;;;;;;;-0.38;100.00;101481.35;103209;1289;60296;-79
2023/01/21 04:23:18;;;;;;;22.40;5.60;;;;;;;-0.40;100.00;101458.85;103008;1289;60520;-79
2023/01/21 04:25:43;;;;;;;23.30;6.30;;;;;;;-0.39;100.00;101451.33;103319;1299;60299;-80
2023/01/21 04:28:08;;;;;;;26.60;6.20;;;;;;;-0.38;100.00;101451.91;103505;1298;60413;-80
2023/01/21 04:30:34;;;;;;;22.60;6.70;;;;;;;-0.37;100.00;101440.80;103451;1294;60405;-80
2023/01/21 04:32:59;;;;;;;23.50;6.20;;;;;;;-0.39;100.00;101423.20;103524;1291;60353;-80
2023/01/21 04:35:26;;;;;;;25.30;7.20;;;;;;;-0.42;100.00;101418.77;103289;1289;60398;-79
2023/01/21 04:37:51;;;;;;;23.10;6.00;;;;;;;-0.44;100.00;101440.02;103205;1291;60421;-79
2023/01/21 04:40:17;;;;;;;23.10;7.40;;;;;;;-0.48;100.00;101450.60;103341;1286;60315;-80
2023/01/21 04:46:10;;;;;;;32.00;7.00;;;;;;;-0.47;100.00;101455.19;103009;1292;600165;-79
2023/01/21 04:48:36;;;;;;;25.60;7.10;;;;;;;-0.46;100.00;101465.40;103025;1295;60425;-79
2023/01/21 04:51:02;;;;;;;20.50;7.20;;;;;;;-0.47;100.00;101461.63;103014;1292;60370;-80
2023/01/21 04:53:27;;;;;;;27.30;7.20;;;;;;;-0.50;100.00;101453.52;103187;1292;60344;-79
2023/01/21 04:59:15;;;;;;;24.00;7.20;;;;;;;-0.54;100.00;101480.59;103089;1292;209773;-79
2023/01/21 05:01:41;;;;;;;27.00;7.60;;;;;;;-0.56;100.00;101462.46;103505;1286;60409;-79
2023/01/21 05:04:06;;;;;;;25.70;7.70;;;;;;;-0.58;100.00;101462.30;103418;1291;60450;-79
2023/01/21 05:06:32;;;;;;;24.20;7.50;;;;;;;-0.57;100.00;101467.02;103270;1291;60437;-78
2023/01/21 05:08:57;;;;;;;27.30;7.90;;;;;;;-0.56;100.00;101456.33;103433;1285;60462;-79
2023/01/21 05:11:23;;;;;;;28.70;8.20;;;;;;;-0.59;100.00;101450.58;103038;1286;60350;-79
2023/01/21 05:13:48;;;;;;;26.00;8.40;;;;;;;-0.58;100.00;101456.14;103470;1286;60388;-79
2023/01/21 05:16:14;;;;;;;30.40;8.20;;;;;;;-0.56;100.00;101466.21;103411;1292;60494;-79
2023/01/21 05:18:44;;;;;;;32.10;8.60;;;;;;;-0.55;100.00;101474.34;103027;1286;60424;-79
2023/01/21 05:21:11;;;;;;;27.60;9.60;;;;;;;-0.52;100.00;101486.55;103401;1286;73966;-79
2023/01/21 05:27:07;;;;;;;29.60;9.60;;;;;;;-0.42;100.00;101500.19;102971;1294;599459;-79
2023/01/21 05:29:33;;;;;;;29.80;8.90;;;;;;;-0.39;100.00;101497.04;103393;1289;60370;-79
2023/01/21 05:31:58;;;;;;;33.70;8.90;;;;;;;-0.37;100.00;101489.05;103095;1295;60397;-79
2023/01/21 05:34:24;;;;;;;26.10;8.70;;;;;;;-0.36;100.00;101502.67;103173;1292;60341;-79
2023/01/21 05:36:50;;;;;;;36.70;9.60;;;;;;;-0.32;100.00;101511.45;103158;1289;73126;-79
2023/01/21 05:39:16;;;;;;;33.90;9.90;;;;;;;-0.29;100.00;101513.23;103169;1289;60348;-79
2023/01/21 05:41:41;;;;;;;28.60;9.30;;;;;;;-0.27;100.00;101525.20;103268;1292;188665;-79
2023/01/21 05:44:08;;;;;;;31.70;8.70;;;;;;;-0.23;100.00;101531.86;103557;1289;60482;-80
2023/01/21 05:46:34;;;;;;;31.40;9.20;;;;;;;-0.20;100.00;101534.72;103725;1292;60338;-80
2023/01/21 05:49:00;;;;;;;31.20;8.20;;;;;;;-0.19;100.00;101537.84;103510;1287;60404;-79
2023/01/21 05:51:25;;;;;;;29.00;8.20;;;;;;;-0.18;100.00;101541.46;103543;1290;60494;-79
2023/01/21 05:53:51;;;;;;;30.90;8.80;;;;;;;-0.12;100.00;101546.54;103469;1293;60510;-80
2023/01/21 05:56:16;;;;;;;29.40;8.60;;;;;;;-0.10;100.00;101555.54;103565;1292;60302;-81
2023/01/21 05:58:42;;;;;;;27.30;8.20;;;;;;;-0.09;100.00;101566.51;103564;1289;60459;-79
2023/01/21 06:01:07;;;;;;;38.50;9.30;;;;;;;-0.06;100.00;101584.52;103757;1291;60437;-81
2023/01/21 06:03:34;;;;;;;28.50;9.60;;;;;;;-0.03;100.00;101588.23;103352;1291;60581;-80
2023/01/21 06:06:00;;;;;;;32.80;9.90;;;;;;;-0.01;100.00;101588.39;103569;1291;60350;-80
2023/01/21 06:08:25;;;;;;;35.10;9.40;;;;;;;0.02;100.00;101585.51;103614;1292;60422;-80
2023/01/21 06:10:57;;;;;;;30.20;8.10;;;;;;;0.03;100.00;101593.19;103513;1292;60490;-80
2023/01/21 06:13:23;;;;;;;48.80;10.60;;;;;;;0.05;100.00;101596.96;103509;1291;60722;-80
2023/01/21 06:15:49;;;;;;;28.30;8.60;;;;;;;0.05;100.00;101593.06;103677;1299;60392;-80
2023/01/21 06:18:15;;;;;;;29.80;9.60;;;;;;;0.07;100.00;101591.98;103592;1292;60347;-80
2023/01/21 06:20:40;;;;;;;29.80;9.00;;;;;;;0.08;100.00;101596.61;103684;1291;60328;-80
2023/01/21 06:23:06;;;;;;;28.40;8.40;;;;;;;0.11;100.00;101592.77;103568;1292;60481;-79
2023/01/21 06:25:32;;;;;;;33.80;9.80;;;;;;;0.11;100.00;101582.06;103677;1288;60325;-80
2023/01/21 06:31:19;;;;;;;31.30;9.20;;;;;;;0.14;100.00;101576.26;103518;1286;74043;-80
2023/01/21 06:33:45;;;;;;;28.00;8.00;;;;;;;0.15;100.00;101577.14;103616;1296;60500;-80
2023/01/21 06:36:10;;;;;;;33.60;8.70;;;;;;;0.14;100.00;101575.15;103687;1288;60875;-80
2023/01/21 06:38:36;;;;;;;30.60;8.70;;;;;;;0.17;100.00;101570.44;103634;1287;60393;-81
2023/01/21 06:41:33;;;;;;;31.40;8.20;;;;;;;0.17;100.00;101580.98;103650;1289;60500;-81
2023/01/21 06:43:58;;;;;;;35.80;10.20;;;;;;;0.19;100.00;101571.99;103729;1288;60588;-81
2023/01/21 06:46:24;;;;;;;36.20;11.40;;;;;;;0.20;100.00;101568.28;103729;1286;60433;-80
2023/01/21 06:48:50;;;;;;;30.60;9.30;;;;;;;0.24;100.00;101571.98;103670;1292;60386;-81
2023/01/21 06:51:16;;;;;;;32.00;9.30;;;;;;;0.25;100.00;101572.54;103437;1294;60515;-82
2023/01/21 06:57:00;;;;;;;31.30;9.10;;;;;;;0.31;100.00;101576.51;102892;1290;600753;-80
2023/01/21 06:59:26;;;;;;;28.20;8.70;;;;;;;0.30;100.00;101576.98;103090;1292;60385;-80
2023/01/21 07:01:52;;;;;;;35.40;9.40;;;;;;;0.28;100.00;101584.04;103330;1292;60417;-80
2023/01/21 07:04:17;;;;;;;30.80;9.50;;;;;;;0.31;100.00;101588.11;103302;1288;60296;-80
2023/01/21 07:06:43;;;;;;;33.80;9.80;;;;;;;0.31;100.00;101587.94;103385;1288;60402;-80
2023/01/21 07:09:08;;;;;;;30.60;9.70;;;;;;;0.32;100.00;101594.80;103230;1288;60513;-80
2023/01/21 07:11:34;;;;;;;30.80;9.60;;;;;;;0.36;100.00;101600.09;103403;1288;226351;-80
2023/01/21 07:14:00;;;;;;;36.40;9.00;;;;;;;0.38;100.00;101588.56;103380;1290;60411;-80
2023/01/21 07:16:25;;;;;;;33.00;9.70;;;;;;;0.37;100.00;101587.60;103671;1289;60419;-79
2023/01/21 07:18:51;;;;;;;35.60;8.80;;;;;;;0.40;100.00;101593.14;103170;1296;60398;-80
2023/01/21 07:21:17;;;;;;;36.40;9.70;;;;;;;0.44;100.00;101605.29;103091;1292;62085;-79
2023/01/21 07:23:43;;;;;;;38.50;9.40;;;;;;;0.50;100.00;101613.14;103162;1291;60484;-80
2023/01/21 07:26:09;;;;;;;29.00;9.20;;;;;;;0.53;100.00;101615.63;102767;1299;60334;-79
2023/01/21 07:28:35;;;;;;;30.90;8.00;;;;;;;0.56;100.00;101624.46;103331;1291;60522;-80
2023/01/21 07:31:02;;;;;;;34.60;8.80;;;;;;;0.61;100.00;101616.00;103040;1292;60468;-80
2023/01/21 07:33:28;;;;;;;31.50;9.40;;;;;;;0.63;100.00;101619.77;102936;1291;62132;-80
2023/01/21 07:35:54;;;;;;;28.70;9.00;;;;;;;0.66;100.00;101616.75;103083;1292;60473;-80
2023/01/21 07:38:20;;;;;;;33.50;9.40;;;;;;;0.67;100.00;101632.07;103044;1297;61173;-80
2023/01/21 07:40:49;;;;;;;29.10;8.60;;;;;;;0.71;100.00;101641.40;103116;1297;60419;-80
2023/01/21 07:43:15;;;;;;;30.50;10.10;;;;;;;0.73;100.00;101650.33;103109;1292;60645;-80
2023/01/21 07:45:41;;;;;;;27.90;8.70;;;;;;;0.76;100.00;101638.48;102765;1292;60425;-80
2023/01/21 07:48:07;;;;;;;29.10;8.90;;;;;;;0.81;100.00;101645.93;103041;1294;60421;-81
2023/01/21 07:50:34;;;;;;;28.20;8.80;;;;;;;0.87;100.00;101653.29;103281;1289;60589;-80
2023/01/21 07:53:00;;;;;;;34.20;9.50;;;;;;;0.93;100.00;101660.93;103374;1289;60290;-80
2023/01/21 07:55:27;;;;;;;36.00;7.90;;;;;;;0.96;100.00;101673.49;103284;1289;60472;-80
2023/01/21 07:57:55;;;;;;;33.60;8.50;;;;;;;0.96;100.00;101676.48;103467;1291;60992;-80
2023/01/21 08:00:22;;;;;;;28.30;8.90;;;;;;;0.99;100.00;101690.13;103394;1291;74841;-80
2023/01/21 08:02:53;;;;;;;27.60;8.30;;;;;;;1.03;100.00;101699.29;103469;1286;73839;-80
2023/01/21 08:05:19;;;;;;;24.10;8.70;;;;;;;1.05;100.00;101700.65;103532;1286;62513;-80
2023/01/21 08:07:44;;;;;;;27.40;9.00;;;;;;;1.11;100.00;101697.65;103473;1291;60405;-80
2023/01/21 08:10:10;;;;;;;27.40;8.90;;;;;;;1.13;100.00;101696.88;103677;1292;60328;-81
2023/01/21 08:12:35;;;;;;;29.00;8.80;;;;;;;1.16;100.00;101704.58;103693;1286;60351;-80
2023/01/21 08:15:01;;;;;;;28.70;8.70;;;;;;;1.25;100.00;101702.85;103601;1285;60395;-81
2023/01/21 08:17:27;;;;;;;29.50;8.60;;;;;;;1.24;100.00;101705.44;103415;1290;60506;-80
2023/01/21 08:19:52;;;;;;;31.40;8.80;;;;;;;1.23;100.00;101715.98;103538;1285;60430;-81
2023/01/21 08:22:18;;;;;;;30.90;9.10;;;;;;;1.27;100.00;101713.92;103611;1285;60406;-81
2023/01/21 08:24:43;;;;;;;30.00;9.20;;;;;;;1.28;100.00;101709.21;103642;1285;60502;-80
2023/01/21 08:27:09;;;;;;;25.60;7.90;;;;;;;1.36;100.00;101715.89;103732;1287;60382;-81
2023/01/21 08:29:34;;;;;;;26.80;8.40;;;;;;;1.41;100.00;101721.58;103743;1288;60387;-80
2023/01/21 08:32:00;;;;;;;24.20;8.10;;;;;;;1.48;100.00;101727.53;103595;1285;60318;-80
2023/01/21 08:34:25;;;;;;;22.80;8.50;;;;;;;1.50;100.00;101721.31;103817;1286;60351;-80
2023/01/21 08:36:51;;;;;;;26.40;8.60;;;;;;;1.50;100.00;101709.36;103658;1284;60363;-80
2023/01/21 08:39:16;;;;;;;25.00;8.00;;;;;;;1.56;100.00;101709.93;103594;1285;60389;-82
2023/01/21 08:41:43;;;;;;;29.70;8.60;;;;;;;1.63;100.00;101705.98;103693;1288;60411;-81
2023/01/21 08:44:09;;;;;;;26.20;8.00;;;;;;;1.66;100.00;101691.30;103424;1285;72990;-81
2023/01/21 08:46:37;;;;;;;27.80;7.70;;;;;;;1.78;100.00;101703.59;103538;1285;60425;-80
2023/01/21 08:49:03;;;;;;;25.00;8.40;;;;;;;1.87;100.00;101699.59;103202;1284;60693;-81
2023/01/21 08:51:29;;;;;;;29.00;8.20;;;;;;;1.89;100.00;101695.58;103737;1287;75704;-81
2023/01/21 08:57:16;;;;;;;34.10;9.00;;;;;;;2.26;100.00;101696.96;103636;1285;71247;-81
2023/01/21 08:59:42;;;;;;;23.80;8.10;;;;;;;2.59;100.00;101694.28;103767;1285;60406;-81
2023/01/21 09:02:10;;;;;;;24.70;7.80;;;;;;;2.78;100.00;101707.48;103420;1285;60408;-81
2023/01/21 09:04:35;;;;;;;29.00;8.00;;;;;;;2.88;100.00;101712.11;103742;1285;60385;-82
2023/01/21 09:07:01;;;;;;;26.50;8.50;;;;;;;2.97;100.00;101721.00;103576;1291;62196;-81
2023/01/21 09:09:26;;;;;;;24.70;7.40;;;;;;;3.01;100.00;101719.43;103843;1283;60449;-81
2023/01/21 09:11:52;;;;;;;27.50;7.90;;;;;;;2.99;100.00;101717.15;103620;1283;60276;-80
2023/01/21 09:14:19;;;;;;;23.50;7.90;;;;;;;3.00;100.00;101717.29;103966;1283;60818;-80
2023/01/21 09:20:19;;;;;;;27.00;7.90;;;;;;;3.28;100.00;101722.08;102993;1290;601538;-80
2023/01/21 09:22:44;;;;;;;22.10;8.10;;;;;;;3.35;100.00;101728.06;103283;1293;60366;-80
2023/01/21 09:28:35;;;;;;;23.70;7.30;;;;;;;3.29;100.00;101720.00;103434;1289;70989;-80
2023/01/21 09:31:04;;;;;;;27.00;7.90;;;;;;;3.22;100.00;101713.39;103478;1289;74915;-81
2023/01/21 09:33:33;;;;;;;22.80;7.10;;;;;;;3.22;100.00;101716.06;103300;1290;240552;-81
2023/01/21 09:36:00;;;;;;;21.10;7.60;;;;;;;3.22;100.00;101714.68;103885;1285;60735;-81
2023/01/21 09:38:27;;;;;;;26.00;7.50;;;;;;;3.28;100.00;101703.11;103386;1289;62050;-80
2023/01/21 09:44:35;;;;;;;28.60;8.20;;;;;;;3.27;100.00;101719.02;103430;1288;74986;-81
2023/01/21 09:50:23;;;;;;;27.60;8.10;;;;;;;3.43;100.00;101737.93;103408;1289;60331;-81
2023/01/21 09:52:52;;;;;;;20.10;7.10;;;;;;;3.58;100.00;101746.34;103309;1288;60459;-81
2023/01/21 09:55:22;;;;;;;29.30;8.60;;;;;;;3.77;100.00;101754.34;103152;1292;73198;-81
2023/01/21 09:57:57;;;;;;;21.30;6.60;;;;;;;3.82;100.00;101761.58;103136;1292;75107;-81
2023/01/21 10:00:34;;;;;;;26.60;8.50;;;;;;;3.76;100.00;101761.23;103034;1293;72098;-81
2023/01/21 10:03:41;;;;;;;30.50;8.80;;;;;;;3.72;100.00;101763.41;103427;1291;61834;-81
2023/01/21 10:06:32;;;;;;;17.80;6.50;;;;;;;3.66;100.00;101772.77;103063;1297;60984;-82
2023/01/21 10:09:05;;;;;;;22.40;7.90;;;;;;;3.58;100.00;101771.59;103467;1294;75261;-82
2023/01/21 14:08:05;;;;;;;37.60;10.90;;;;;;;1.33;100.00;101978.96;104261;1280;615336;-87
2023/01/21 14:11:06;;;;;;;30.30;9.90;;;;;;;1.45;100.00;101979.70;103486;1289;600101;-86
2023/01/21 14:16:57;;;;;;;31.70;9.90;;;;;;;1.64;100.00;101988.20;103761;1288;60243;-85
2023/01/21 14:26:20;;;;;;;32.20;9.70;;;;;;;1.86;100.00;101980.69;96258;1286;73453;-86
2023/01/21 14:32:34;;;;;;;27.20;10.00;;;;;;;1.94;100.00;101986.58;102911;1292;600301;-85
2023/01/21 14:35:40;;;;;;;23.50;8.40;;;;;;;1.96;100.00;101988.95;103019;1293;62877;-84
2023/01/21 14:42:15;;;;;;;23.50;8.60;;;;;;;1.98;100.00;101999.52;102501;1302;72703;-86
2023/01/21 14:44:44;;;;;;;33.20;9.80;;;;;;;1.98;100.00;102011.27;102464;1298;74872;-86
2023/01/21 14:47:32;;;;;;;26.40;8.90;;;;;;;1.95;100.00;102014.20;102366;1298;184488;-86
2023/01/21 14:53:28;;;;;;;32.60;10.10;;;;;;;1.91;100.00;102016.29;103774;1281;600832;-85
2023/01/21 14:56:16;;;;;;;29.50;10.80;;;;;;;1.90;100.00;102027.36;103986;1285;60422;-85
2023/01/21 15:02:30;;;;;;;34.30;10.30;;;;;;;1.72;100.00;102032.52;104065;1286;70961;-85
2023/01/21 15:05:00;;;;;;;31.10;10.10;;;;;;;1.64;100.00;102036.42;103974;1283;74831;-84
2023/01/21 15:11:03;;;;;;;30.70;10.20;;;;;;;1.57;100.00;102048.11;103631;1282;599768;-84
2023/01/21 15:13:35;;;;;;;29.30;9.70;;;;;;;1.50;100.00;102050.96;103534;1287;61932;-85
2023/01/21 15:16:12;;;;;;;35.70;9.90;;;;;;;1.45;100.00;102051.91;103652;1287;60528;-85
2023/01/21 15:18:47;;;;;;;28.80;9.30;;;;;;;1.40;100.00;102048.58;103849;1287;74069;-84
2023/01/21 15:21:42;;;;;;;33.50;10.70;;;;;;;1.26;100.00;102053.00;103347;1288;73428;-85
2023/01/21 15:24:35;;;;;;;30.10;10.70;;;;;;;1.14;100.00;102055.69;102766;1285;230295;-84
2023/01/21 15:27:20;;;;;;;31.30;10.40;;;;;;;1.07;100.00;102065.48;103414;1285;62672;-84
2023/01/21 15:33:01;;;;;;;41.30;12.00;;;;;;;0.96;100.00;102075.46;103036;1292;601069;-85
2023/01/21 15:35:32;;;;;;;33.70;10.80;;;;;;;0.88;100.00;102074.73;103155;1293;60346;-86
2023/01/21 15:38:02;;;;;;;37.50;12.00;;;;;;;0.82;100.00;102078.73;103056;1295;60899;-85
2023/01/21 15:40:36;;;;;;;42.40;12.50;;;;;;;0.75;100.00;102087.25;103212;1295;73517;-85
2023/01/21 15:43:29;;;;;;;42.10;13.00;;;;;;;0.72;100.00;102089.81;103207;1299;73409;-84
2023/01/21 15:46:34;;;;;;;49.60;13.90;;;;;;;0.66;100.00;102095.52;103224;1294;240761;-83
2023/01/21 15:49:18;;;;;;;37.30;11.60;;;;;;;0.64;100.00;102100.19;103354;1291;62477;-83
2023/01/21 15:52:16;;;;;;;35.10;11.90;;;;;;;0.62;100.00;102101.23;103277;1292;60429;-85
2023/01/21 15:58:34;;;;;;;37.50;12.10;;;;;;;0.62;100.00;102112.44;103109;1290;601009;-85
2023/01/21 16:01:29;;;;;;;41.90;12.20;;;;;;;0.60;100.00;102105.83;103164;1292;61399;-86
2023/01/21 16:04:34;;;;;;;43.90;13.10;;;;;;;0.60;100.00;102109.38;102613;1297;61935;-84
2023/01/21 16:07:12;;;;;;;43.10;12.20;;;;;;;0.61;100.00;102108.65;102585;1300;73550;-85
2023/01/21 16:09:53;;;;;;;44.00;13.40;;;;;;;0.60;100.00;102105.89;102594;1298;73744;-85
2023/01/21 16:12:31;;;;;;;38.90;11.40;;;;;;;0.60;100.00;102111.02;102622;1295;246640;-85
2023/01/21 16:14:56;;;;;;;43.70;12.70;;;;;;;0.58;100.00;102116.73;102920;1294;62714;-86
2023/01/21 16:17:36;;;;;;;37.60;12.10;;;;;;;0.59;100.00;102117.79;102860;1297;60433;-86
2023/01/21 16:20:19;;;;;;;34.50;11.70;;;;;;;0.63;100.00;102130.52;102934;1293;602162;-85
2023/01/21 16:22:48;;;;;;;40.40;12.60;;;;;;;0.61;100.00;102136.67;103258;1289;60387;-85
2023/01/21 16:25:20;;;;;;;38.60;12.90;;;;;;;0.63;100.00;102137.72;103345;1288;60682;-85
2023/01/21 16:27:48;;;;;;;48.00;14.00;;;;;;;0.66;100.00;102138.37;102987;1295;72169;-85
2023/01/21 16:30:19;;;;;;;43.30;12.80;;;;;;;0.66;100.00;102139.25;103190;1289;75035;-85
2023/01/21 16:32:45;;;;;;;36.80;11.50;;;;;;;0.68;100.00;102142.33;103087;1289;73964;-84
2023/01/21 16:35:12;;;;;;;39.80;12.40;;;;;;;0.71;100.00;102143.66;103120;1286;61706;-85
2023/01/21 16:37:38;;;;;;;39.20;11.80;;;;;;;0.69;100.00;102148.42;103263;1292;60517;-85
2023/01/21 16:40:34;;;;;;;42.80;12.00;;;;;;;0.70;100.00;102153.88;103476;1286;60277;-85
2023/01/21 16:43:23;;;;;;;38.20;12.40;;;;;;;0.72;100.00;102162.34;103311;1292;75037;-85
2023/01/21 16:46:01;;;;;;;41.60;11.50;;;;;;;0.74;100.00;102162.15;103509;1290;73926;-85
2023/01/21 16:48:30;;;;;;;40.80;11.10;;;;;;;0.75;100.00;102164.16;103210;1288;61624;-85